Map

Track Data

SID SEASON NUMBER BASIN SUBBASIN NAME ISO_TIME NATURE LAT LON WMO_WIND WMO_PRES WMO_AGENCY TRACK_TYPE DIST2LAND LANDFALL IFLAG USA_AGENCY USA_ATCF_ID USA_LAT USA_LON USA_RECORD USA_STATUS USA_WIND USA_PRES USA_SSHS USA_R34_NE USA_R34_SE USA_R34_SW USA_R34_NW USA_R50_NE USA_R50_SE USA_R50_SW USA_R50_NW USA_R64_NE USA_R64_SE USA_R64_SW USA_R64_NW USA_POCI USA_ROCI USA_RMW USA_EYE TOKYO_LAT TOKYO_LON TOKYO_GRADE TOKYO_WIND TOKYO_PRES TOKYO_R50_DIR TOKYO_R50_LONG TOKYO_R50_SHORT TOKYO_R30_DIR TOKYO_R30_LONG TOKYO_R30_SHORT TOKYO_LAND CMA_LAT CMA_LON CMA_CAT CMA_WIND CMA_PRES HKO_LAT HKO_LON HKO_CAT HKO_WIND HKO_PRES NEWDELHI_LAT NEWDELHI_LON NEWDELHI_GRADE NEWDELHI_WIND NEWDELHI_PRES NEWDELHI_CI NEWDELHI_DP NEWDELHI_POCI REUNION_LAT REUNION_LON REUNION_TYPE REUNION_WIND REUNION_PRES REUNION_TNUM REUNION_CI REUNION_RMW REUNION_R34_NE REUNION_R34_SE REUNION_R34_SW REUNION_R34_NW REUNION_R50_NE REUNION_R50_SE REUNION_R50_SW REUNION_R50_NW REUNION_R64_NE REUNION_R64_SE REUNION_R64_SW REUNION_R64_NW BOM_LAT BOM_LON BOM_TYPE BOM_WIND BOM_PRES BOM_TNUM BOM_CI BOM_RMW BOM_R34_NE BOM_R34_SE BOM_R34_SW BOM_R34_NW BOM_R50_NE BOM_R50_SE BOM_R50_SW BOM_R50_NW BOM_R64_NE BOM_R64_SE BOM_R64_SW BOM_R64_NW BOM_ROCI BOM_POCI BOM_EYE BOM_POS_METHOD BOM_PRES_METHOD NADI_LAT NADI_LON NADI_CAT NADI_WIND NADI_PRES WELLINGTON_LAT WELLINGTON_LON WELLINGTON_WIND WELLINGTON_PRES DS824_LAT DS824_LON DS824_STAGE DS824_WIND DS824_PRES TD9636_LAT TD9636_LON TD9636_STAGE TD9636_WIND TD9636_PRES TD9635_LAT TD9635_LON TD9635_WIND TD9635_PRES TD9635_ROCI NEUMANN_LAT NEUMANN_LON NEUMANN_CLASS NEUMANN_WIND NEUMANN_PRES MLC_LAT MLC_LON MLC_CLASS MLC_WIND MLC_PRES USA_GUST BOM_GUST BOM_GUST_PER REUNION_GUST REUNION_GUST_PER USA_SEAHGT USA_SEARAD_NE USA_SEARAD_SE USA_SEARAD_SW USA_SEARAD_NW STORM_SPEED STORM_DIR
1979171N10315 1979 45 NA NA ANA 1979-06-19 12:00:00 TS 10.0000 -45.0000 25 1011 hurdat_atl main 944 912 O_____________ hurdat_atl AL021979 10.0000 -45.0000 TD 25 1011 -1 10 281
1979171N10315 1979 45 NA NA ANA 1979-06-19 15:00:00 TS 10.0927 -45.5024 main 912 882 P_____________ AL021979 10.0927 -45.5024 TD 25 1011 -1 10 281
1979171N10315 1979 45 NA NA ANA 1979-06-19 18:00:00 TS 10.2000 -46.0000 25 1011 hurdat_atl main 882 855 O_____________ hurdat_atl AL021979 10.2000 -46.0000 TD 25 1011 -1 10 284
1979171N10315 1979 45 NA NA ANA 1979-06-19 21:00:00 TS 10.3349 -46.4926 main 855 841 P_____________ AL021979 10.3349 -46.4926 TD 25 1010 -1 10 287
1979171N10315 1979 45 NA NA ANA 1979-06-20 00:00:00 TS 10.5000 -47.0000 25 1010 hurdat_atl main 841 826 O_____________ hurdat_atl AL021979 10.5000 -47.0000 TD 25 1010 -1 11 289
1979171N10315 1979 45 NA NA ANA 1979-06-20 03:00:00 TS 10.6924 -47.5425 main 830 808 P_____________ AL021979 10.6924 -47.5425 TD 25 1010 -1 12 290
1979171N10315 1979 45 NA NA ANA 1979-06-20 06:00:00 TS 10.9000 -48.1000 25 1010 hurdat_atl main 808 791 O_____________ hurdat_atl AL021979 10.9000 -48.1000 TD 25 1010 -1 12 290
1979171N10315 1979 45 NA NA ANA 1979-06-20 09:00:00 TS 11.0924 -48.6576 main 788 774 P_____________ AL021979 11.0924 -48.6576 TD 25 1010 -1 12 290
1979171N10315 1979 45 NA NA ANA 1979-06-20 12:00:00 TS 11.3000 -49.2000 25 1010 hurdat_atl main 779 773 O_____________ hurdat_atl AL021979 11.3000 -49.2000 TD 25 1010 -1 11 293
1979171N10315 1979 45 NA NA ANA 1979-06-20 15:00:00 TS 11.5424 -49.7150 main 773 773 P_____________ AL021979 11.5424 -49.7150 TD 25 1009 -1 11 297
1979171N10315 1979 45 NA NA ANA 1979-06-20 18:00:00 TS 11.8000 -50.2000 25 1009 hurdat_atl main 782 778 O_____________ hurdat_atl AL021979 11.8000 -50.2000 TD 25 1009 -1 11 298
1979171N10315 1979 45 NA NA ANA 1979-06-20 21:00:00 TS 12.0424 -50.6651 main 783 783 P_____________ AL021979 12.0424 -50.6651 TD 27 1009 -1 10 300
1979171N10315 1979 45 NA NA ANA 1979-06-21 00:00:00 TS 12.3000 -51.1000 30 1009 hurdat_atl main 793 789 O_____________ hurdat_atl AL021979 12.3000 -51.1000 TD 30 1009 -1 10 304
1979171N10315 1979 45 NA NA ANA 1979-06-21 03:00:00 TS 12.5924 -51.5076 main 806 802 P_____________ AL021979 12.5924 -51.5076 TD 30 1008 -1 10 308
1979171N10315 1979 45 NA NA ANA 1979-06-21 06:00:00 TS 12.9000 -51.9000 30 1008 hurdat_atl main 823 823 O_____________ hurdat_atl AL021979 12.9000 -51.9000 TD 30 1008 -1 10 309
1979171N10315 1979 45 NA NA ANA 1979-06-21 09:00:00 TS 13.2149 -52.3000 main 843 843 P_____________ AL021979 13.2149 -52.3000 TD 30 1008 -1 10 308
1979171N10315 1979 45 NA NA ANA 1979-06-21 12:00:00 TS 13.5000 -52.7000 30 1008 hurdat_atl main 867 865 O_____________ hurdat_atl AL021979 13.5000 -52.7000 TD 30 1008 -1 9 304
1979171N10315 1979 45 NA NA ANA 1979-06-21 15:00:00 TS 13.7223 -53.0702 main 881 881 P_____________ AL021979 13.7223 -53.0702 TD 30 1007 -1 9 297
1979171N10315 1979 45 NA NA ANA 1979-06-21 18:00:00 TS 13.9000 -53.5000 30 1007 hurdat_atl main 890 850 O_____________ hurdat_atl AL021979 13.9000 -53.5000 TD 30 1007 -1 10 290
1979171N10315 1979 45 NA NA ANA 1979-06-21 21:00:00 TS 14.0801 -54.0774 main 840 788 P_____________ AL021979 14.0801 -54.0774 TD 32 1007 -1 12 284
1979171N10315 1979 45 NA NA ANA 1979-06-22 00:00:00 TS 14.2000 -54.7000 35 1007 hurdat_atl main 788 742 O_____________ hurdat_atl AL021979 14.2000 -54.7000 TS 35 1007 0 12 277
1979171N10315 1979 45 NA NA ANA 1979-06-22 03:00:00 TS 14.2223 -55.2577 main 732 687 P_____________ AL021979 14.2223 -55.2577 TS 37 1006 0 11 270
1979171N10315 1979 45 NA NA ANA 1979-06-22 06:00:00 TS 14.2000 -55.8000 40 1005 hurdat_atl main 687 643 O_____________ hurdat_atl AL021979 14.2000 -55.8000 TS 40 1005 0 10 269
1979171N10315 1979 45 NA NA ANA 1979-06-22 09:00:00 TS 14.2072 -56.3274 main 643 593 P_____________ AL021979 14.2072 -56.3274 TS 45 1005 0 11 270
1979171N10315 1979 45 NA NA ANA 1979-06-22 12:00:00 TS 14.2000 -56.9000 50 1006 hurdat_atl main 593 546 O_____________ hurdat_atl AL021979 14.2000 -56.9000 TS 50 1006 0 12 267
1979171N10315 1979 45 NA NA ANA 1979-06-22 15:00:00 TS 14.1499 -57.5701 main 530 480 P_____________ AL021979 14.1499 -57.5701 TS 45 1007 0 14 266
1979171N10315 1979 45 NA NA ANA 1979-06-22 18:00:00 TS 14.1000 -58.3000 40 1008 hurdat_atl main 480 438 O_____________ hurdat_atl AL021979 14.1000 -58.3000 TS 40 1008 0 14 268
1979171N10315 1979 45 NA NA ANA 1979-06-22 21:00:00 TS 14.0998 -59.0424 main 438 402 P_____________ AL021979 14.0998 -59.0424 TS 37 1009 0 15 270
1979171N10315 1979 45 NA CS ANA 1979-06-23 00:00:00 TS 14.1000 -59.8000 35 1010 hurdat_atl main 402 384 O_____________ hurdat_atl AL021979 14.1000 -59.8000 TS 35 1010 0 15 268
1979171N10315 1979 45 NA CS ANA 1979-06-23 03:00:00 TS 14.0498 -60.5501 main 372 369 P_____________ AL021979 14.0498 -60.5501 TS 32 1011 -1 15 266
1979171N10315 1979 45 NA CS ANA 1979-06-23 06:00:00 TS 14.0000 -61.3000 30 1012 hurdat_atl main 369 369 O_____________ hurdat_atl AL021979 14.0000 -61.3000 TD 30 1012 -1 14 268
1979171N10315 1979 45 NA CS ANA 1979-06-23 09:00:00 TS 13.9921 -62.0349 main 370 369 P_____________ AL021979 13.9921 -62.0349 TD 27 1012 -1 15 270
1979171N10315 1979 45 NA CS ANA 1979-06-23 12:00:00 TS 14.0000 -62.8000 25 1012 hurdat_atl main 369 369 O_____________ hurdat_atl AL021979 14.0000 -62.8000 TD 25 1012 -1 16 270
1979171N10315 1979 45 NA CS ANA 1979-06-23 15:00:00 TS 13.9999 -63.6350 main 373 373 P_____________ AL021979 13.9999 -63.6350 TD 25 1012 -1 17 270
1979171N10315 1979 45 NA CS ANA 1979-06-23 18:00:00 TS 14.0000 -64.5000 25 1012 hurdat_atl main 382 382 O_____________ hurdat_atl AL021979 14.0000 -64.5000 TD 25 1012 -1 17 270
1979171N10315 1979 45 NA CS ANA 1979-06-23 21:00:00 TS 14.0005 -65.3550 main 386 380 P_____________ AL021979 14.0005 -65.3550 TD 25 1012 -1 17 270
1979171N10315 1979 45 NA CS ANA 1979-06-24 00:00:00 TS 14.0000 -66.2000 25 1012 hurdat_atl main 380 O_____________ hurdat_atl AL021979 14.0000 -66.2000 TD 25 1012 -1 16 270

About IBTrACS Database

This database is a web-friendly format of International Best Track Archive for Climate Stewardship (IBTrACS), a global best track data archive curated by NOAA dating back to 1842.

Updated: 2021-12-03